Harold Wood, United Kingdom
Current Conditions -  °F | °C
As of 3:50 AM on Friday 19 Dec 2014 (Local Time) from EGLC Reporting Station
Rain Showers Rain Showers  
Wind Chill: 55°   Ceiling: 1400
Heat Index: 55°   Visibility: 6mi
Dew Point: 50°   Wind: 18mph
Humidity: 82%   Direction: 240°WSW
Pressure: 29.77"   Gusts: 32mph
Location:  51.59°N, 0.23°E
Report Text: EGLC 190350Z AUTO 24016G28KT 9999 -SHRA BKN014/// 13/10 Q1008 RERA
Loading
Personal Weather Stations






























Interactive Weather Map New forecast layout! Learn more

10-Day Weather Forecast

Advertisements
Track Severe Weather on mobile